createdAt,value
2017-07-16T00:00:16.896Z,6.63
2017-07-16T00:02:43.366Z,6.00
2017-07-16T00:05:09.860Z,7.80
2017-07-16T00:07:36.373Z,6.33
2017-07-16T00:10:04.271Z,7.60
2017-07-16T00:12:31.239Z,5.60
2017-07-16T00:14:57.737Z,8.13
2017-07-16T00:17:24.222Z,5.97
2017-07-16T00:19:51.171Z,6.67
2017-07-16T00:22:17.660Z,5.73
2017-07-16T00:24:44.166Z,5.50
2017-07-16T00:27:10.657Z,5.37
2017-07-16T00:29:37.101Z,6.30
2017-07-16T00:32:03.585Z,5.23
2017-07-16T00:34:30.052Z,5.50
2017-07-16T00:36:56.518Z,5.30
2017-07-16T00:39:22.977Z,8.33
2017-07-16T00:41:49.604Z,5.40
2017-07-16T00:44:16.422Z,5.83
2017-07-16T00:46:42.896Z,4.97
2017-07-16T00:49:09.735Z,6.70
2017-07-16T00:51:36.229Z,5.47
2017-07-16T00:54:02.711Z,5.67
2017-07-16T00:56:29.209Z,8.13
2017-07-16T00:58:55.688Z,5.07
2017-07-16T01:01:22.213Z,4.67
2017-07-16T01:03:48.664Z,7.40
2017-07-16T01:06:15.121Z,6.70
2017-07-16T01:08:41.592Z,6.00
2017-07-16T01:11:08.288Z,5.47
2017-07-16T01:13:34.827Z,5.07
2017-07-16T01:16:01.514Z,4.87
2017-07-16T01:18:28.025Z,5.37
2017-07-16T01:20:54.506Z,6.30
2017-07-16T01:23:21.006Z,5.87
2017-07-16T01:25:47.536Z,5.03
2017-07-16T01:28:13.991Z,5.70
2017-07-16T01:30:40.500Z,5.90
2017-07-16T01:33:07.026Z,5.50
2017-07-16T01:35:33.859Z,4.97
2017-07-16T01:38:00.405Z,4.50
2017-07-16T01:40:26.883Z,6.67
2017-07-16T01:42:53.770Z,5.93
2017-07-16T01:45:20.323Z,9.13
2017-07-16T01:47:47.015Z,4.47
2017-07-16T01:50:13.570Z,4.37
2017-07-16T01:52:40.072Z,4.67
2017-07-16T01:55:06.605Z,5.00
2017-07-16T01:57:33.150Z,7.80
2017-07-16T01:59:59.627Z,6.33
2017-07-16T02:02:26.131Z,6.73
2017-07-16T02:04:52.600Z,4.17
2017-07-16T02:07:19.051Z,4.93
2017-07-16T02:09:45.558Z,5.73
2017-07-16T02:12:12.058Z,4.27
2017-07-16T02:14:38.658Z,4.70
2017-07-16T02:17:05.161Z,4.90
2017-07-16T02:19:31.659Z,5.50
2017-07-16T02:21:58.145Z,4.80
2017-07-16T02:24:24.652Z,4.27
2017-07-16T02:26:51.319Z,4.63
2017-07-16T02:29:17.782Z,4.70
2017-07-16T02:31:44.297Z,4.50
2017-07-16T02:34:10.792Z,4.17
2017-07-16T02:36:37.264Z,6.20
2017-07-16T02:39:03.851Z,4.37
2017-07-16T02:41:30.310Z,7.37
2017-07-16T02:43:56.765Z,4.37
2017-07-16T02:46:23.232Z,4.83
2017-07-16T02:48:49.750Z,5.50
2017-07-16T02:51:16.297Z,4.53
2017-07-16T02:53:42.843Z,5.10
2017-07-16T02:56:09.352Z,4.10
2017-07-16T02:58:35.884Z,5.77
2017-07-16T03:01:02.410Z,6.33
2017-07-16T03:03:28.942Z,4.80
2017-07-16T03:05:55.475Z,6.27
2017-07-16T03:08:21.953Z,5.43
2017-07-16T03:10:48.487Z,7.30
2017-07-16T03:13:14.963Z,5.60
2017-07-16T03:15:41.481Z,7.73
2017-07-16T03:18:08.034Z,6.70
2017-07-16T03:20:34.553Z,6.33
2017-07-16T03:23:01.033Z,5.80
2017-07-16T03:25:36.459Z,4.67
2017-07-16T03:28:02.953Z,4.83
2017-07-16T03:30:29.509Z,4.70
2017-07-16T03:32:56.059Z,4.40
2017-07-16T03:35:22.562Z,4.33
2017-07-16T03:37:49.099Z,3.40
2017-07-16T03:40:15.646Z,5.33
2017-07-16T03:42:42.151Z,5.13
2017-07-16T03:45:08.649Z,6.43
2017-07-16T03:47:35.128Z,5.60
2017-07-16T03:50:01.668Z,5.37
2017-07-16T03:52:28.161Z,4.33
2017-07-16T03:54:54.621Z,4.37
2017-07-16T03:57:21.099Z,4.03
2017-07-16T03:59:47.583Z,5.47
2017-07-16T04:02:14.046Z,3.80
2017-07-16T04:04:40.560Z,4.53
2017-07-16T04:07:07.014Z,4.20
2017-07-16T04:09:33.486Z,4.60
2017-07-16T04:12:00.081Z,7.40
2017-07-16T04:14:26.555Z,3.67
2017-07-16T04:16:53.021Z,7.80
2017-07-16T04:19:19.504Z,5.23
2017-07-16T04:21:45.969Z,6.77
2017-07-16T04:24:12.457Z,4.33
2017-07-16T04:26:38.929Z,7.33
2017-07-16T04:29:05.431Z,4.70
2017-07-16T04:31:31.877Z,7.83
2017-07-16T04:33:58.332Z,8.03
2017-07-16T04:36:24.802Z,4.60
2017-07-16T04:38:51.198Z,4.63
2017-07-16T04:41:17.563Z,3.93
2017-07-16T04:43:43.962Z,5.90
2017-07-16T04:46:10.322Z,8.07
2017-07-16T04:48:36.663Z,4.60
2017-07-16T04:51:03.022Z,6.83
2017-07-16T04:53:29.379Z,4.67
2017-07-16T04:55:55.765Z,7.03
2017-07-16T04:58:22.118Z,6.87
2017-07-16T05:00:48.449Z,5.27
2017-07-16T05:03:14.817Z,5.93
2017-07-16T05:05:41.197Z,5.70
2017-07-16T05:08:07.563Z,4.73
2017-07-16T05:10:33.926Z,5.30
2017-07-16T05:13:00.273Z,5.47
2017-07-16T05:15:26.647Z,4.40
2017-07-16T05:17:52.999Z,4.87
2017-07-16T05:20:19.362Z,6.77
2017-07-16T05:22:45.718Z,5.60
2017-07-16T05:25:12.121Z,7.13
2017-07-16T05:27:38.517Z,7.07
2017-07-16T05:30:04.914Z,6.83
2017-07-16T05:32:31.279Z,7.03
2017-07-16T05:34:57.649Z,7.40
2017-07-16T05:37:24.016Z,6.60
2017-07-16T05:39:50.379Z,7.57
2017-07-16T05:42:16.743Z,10.60
2017-07-16T05:44:43.106Z,9.73
2017-07-16T05:47:09.471Z,7.00
2017-07-16T05:49:35.819Z,8.53
2017-07-16T05:52:02.516Z,10.50
2017-07-16T05:54:28.875Z,7.00
2017-07-16T05:56:55.276Z,8.90
2017-07-16T05:59:21.654Z,7.93
2017-07-16T06:01:48.009Z,8.20
2017-07-16T06:04:14.389Z,9.17
2017-07-16T06:06:40.753Z,8.03
2017-07-16T06:09:07.509Z,7.37
2017-07-16T06:11:33.906Z,8.53
2017-07-16T06:14:00.279Z,9.80
2017-07-16T06:16:26.628Z,9.30
2017-07-16T06:18:53.024Z,8.20
2017-07-16T06:21:19.443Z,8.30
2017-07-16T06:23:45.818Z,6.80
2017-07-16T06:26:12.252Z,11.93
2017-07-16T06:28:38.627Z,14.73
2017-07-16T06:31:04.993Z,10.03
2017-07-16T06:33:31.356Z,10.73
2017-07-16T06:35:57.722Z,9.50
2017-07-16T06:38:24.111Z,9.63
2017-07-16T06:40:50.527Z,8.53
2017-07-16T06:43:16.916Z,13.20
2017-07-16T06:45:43.287Z,13.40
2017-07-16T06:48:09.685Z,9.07
2017-07-16T06:50:36.060Z,12.40
2017-07-16T06:53:02.483Z,9.73
2017-07-16T06:55:28.895Z,13.17
2017-07-16T06:57:55.276Z,10.10
2017-07-16T07:00:21.682Z,8.00
2017-07-16T07:02:48.032Z,10.30
2017-07-16T07:05:14.425Z,8.70
2017-07-16T07:07:40.795Z,7.97
2017-07-16T07:10:07.241Z,8.57
2017-07-16T07:12:33.643Z,11.83
2017-07-16T07:14:59.991Z,11.60
2017-07-16T07:17:26.338Z,10.07
2017-07-16T07:19:52.722Z,8.93
2017-07-16T07:22:19.137Z,9.17
2017-07-16T07:24:45.511Z,10.37
2017-07-16T07:27:11.843Z,7.87
2017-07-16T07:29:38.215Z,8.43
2017-07-16T07:32:04.572Z,7.00
2017-07-16T07:34:30.953Z,8.93
2017-07-16T07:36:57.328Z,7.97
2017-07-16T07:39:23.756Z,7.20
2017-07-16T07:41:50.121Z,7.33
2017-07-16T07:44:16.499Z,13.70
2017-07-16T07:46:42.840Z,6.20
2017-07-16T07:49:09.240Z,6.23
2017-07-16T07:51:35.705Z,8.43
2017-07-16T07:54:02.103Z,7.80
2017-07-16T07:56:28.486Z,7.40
2017-07-16T07:58:54.844Z,10.10
2017-07-16T08:01:21.230Z,10.20
2017-07-16T08:03:47.585Z,10.83
2017-07-16T08:06:13.989Z,11.20
2017-07-16T08:08:40.352Z,14.67
2017-07-16T08:11:06.708Z,10.03
2017-07-16T08:13:33.099Z,11.13
2017-07-16T08:15:59.451Z,10.33
2017-07-16T08:18:25.814Z,9.13
2017-07-16T08:20:52.202Z,9.50
2017-07-16T08:23:18.602Z,12.27
2017-07-16T08:25:44.960Z,8.33
2017-07-16T08:28:11.335Z,8.03
2017-07-16T08:30:37.712Z,9.53
2017-07-16T08:33:04.061Z,7.90
2017-07-16T08:35:30.405Z,9.00
2017-07-16T08:37:56.783Z,8.87
2017-07-16T08:40:23.151Z,9.77
2017-07-16T08:42:49.552Z,10.07
2017-07-16T08:45:15.916Z,15.20
2017-07-16T08:47:42.295Z,8.83
2017-07-16T08:50:08.658Z,11.03
2017-07-16T08:52:35.087Z,10.50
2017-07-16T08:55:01.479Z,10.00
2017-07-16T08:57:27.859Z,9.00
2017-07-16T08:59:54.266Z,8.77
2017-07-16T09:02:20.622Z,10.13
2017-07-16T09:04:46.996Z,9.87
2017-07-16T09:07:13.360Z,9.80
2017-07-16T09:09:39.724Z,10.63
2017-07-16T09:12:06.132Z,13.07
2017-07-16T09:14:32.487Z,9.20
2017-07-16T09:16:58.901Z,10.30
2017-07-16T09:19:25.327Z,9.93
2017-07-16T09:21:51.693Z,9.97
2017-07-16T09:24:18.127Z,12.30
2017-07-16T09:26:44.486Z,9.80
2017-07-16T09:29:10.841Z,10.60
2017-07-16T09:31:37.215Z,9.77
2017-07-16T09:34:03.574Z,10.10
2017-07-16T09:36:29.985Z,10.63
2017-07-16T09:38:56.379Z,11.37
2017-07-16T09:41:22.771Z,13.43
2017-07-16T09:43:49.137Z,15.40
2017-07-16T09:46:15.527Z,13.17
2017-07-16T09:48:41.900Z,13.23
2017-07-16T09:51:08.275Z,16.33
2017-07-16T09:53:34.696Z,14.30
2017-07-16T09:56:01.096Z,16.23
2017-07-16T09:58:27.470Z,15.70
2017-07-16T10:00:53.864Z,15.47
2017-07-16T10:03:20.246Z,18.13
2017-07-16T10:05:46.600Z,28.37
2017-07-16T10:08:12.954Z,33.80
2017-07-16T10:10:39.344Z,28.40
2017-07-16T10:13:11.623Z,20.60
2017-07-16T10:15:37.986Z,22.67
2017-07-16T10:18:04.357Z,21.50
2017-07-16T10:20:30.738Z,17.20
2017-07-16T10:22:57.129Z,15.80
2017-07-16T10:25:23.488Z,15.60
2017-07-16T10:27:49.863Z,16.80
2017-07-16T10:30:16.225Z,15.53
2017-07-16T10:32:42.614Z,14.97
2017-07-16T10:35:08.976Z,15.63
2017-07-16T10:37:35.339Z,15.43
2017-07-16T10:40:01.713Z,16.37
2017-07-16T10:42:28.101Z,14.90
2017-07-16T10:44:54.484Z,15.13
2017-07-16T10:47:20.834Z,17.57
2017-07-16T10:49:47.173Z,15.47
2017-07-16T10:52:13.536Z,17.07
2017-07-16T10:54:39.946Z,16.00
2017-07-16T10:57:06.315Z,15.50
2017-07-16T10:59:32.768Z,14.83
2017-07-16T11:01:59.179Z,14.93
2017-07-16T11:04:25.556Z,15.37
2017-07-16T11:06:51.902Z,16.10
2017-07-16T11:09:18.289Z,15.80
2017-07-16T11:11:44.638Z,15.57
2017-07-16T11:14:11.029Z,15.90
2017-07-16T11:16:37.392Z,16.97
2017-07-16T11:19:03.807Z,15.90
2017-07-16T11:21:30.177Z,15.17
2017-07-16T11:23:56.551Z,18.07
2017-07-16T11:26:22.939Z,16.00
2017-07-16T11:28:49.290Z,15.37
2017-07-16T11:31:15.707Z,17.40
2017-07-16T11:33:42.089Z,17.37
2017-07-16T11:36:08.476Z,16.93
2017-07-16T11:38:34.847Z,15.97
2017-07-16T11:41:01.192Z,17.83
2017-07-16T11:43:27.593Z,18.27
2017-07-16T11:45:53.967Z,18.03
2017-07-16T11:48:20.352Z,17.93
2017-07-16T11:50:46.735Z,17.77
2017-07-16T11:53:13.092Z,19.90
2017-07-16T11:55:39.460Z,18.67
2017-07-16T11:58:05.822Z,18.33
2017-07-16T12:00:32.212Z,18.30
2017-07-16T12:02:58.584Z,19.30
2017-07-16T12:05:24.944Z,17.90
2017-07-16T12:07:51.322Z,19.80
2017-07-16T12:10:17.707Z,17.60
2017-07-16T12:12:44.196Z,19.63
2017-07-16T12:15:10.631Z,18.87
2017-07-16T12:17:37.067Z,17.43
2017-07-16T12:20:03.452Z,17.07
2017-07-16T12:22:29.850Z,18.00
2017-07-16T12:24:56.239Z,16.67
2017-07-16T12:27:22.642Z,16.93
2017-07-16T12:29:49.131Z,18.43
2017-07-16T12:32:15.531Z,16.80
2017-07-16T12:34:41.926Z,18.80
2017-07-16T12:37:08.423Z,17.53
2017-07-16T12:39:34.847Z,17.67
2017-07-16T12:42:01.248Z,17.30
2017-07-16T12:44:27.611Z,17.40
2017-07-16T12:46:54.151Z,17.40
2017-07-16T12:49:20.517Z,17.87
2017-07-16T12:51:46.956Z,17.00
2017-07-16T12:54:13.341Z,15.90
2017-07-16T12:56:39.724Z,16.60
2017-07-16T12:59:06.099Z,15.47
2017-07-16T13:01:32.488Z,15.00
2017-07-16T13:03:59.114Z,14.13
2017-07-16T13:06:25.533Z,14.27
2017-07-16T13:08:51.898Z,14.93
2017-07-16T13:11:18.318Z,15.10
2017-07-16T13:13:44.680Z,15.03
2017-07-16T13:16:11.080Z,14.30
2017-07-16T13:18:37.450Z,13.20
2017-07-16T13:21:03.830Z,13.07
2017-07-16T13:23:30.186Z,11.73
2017-07-16T13:25:56.543Z,13.13
2017-07-16T13:28:22.915Z,12.87
2017-07-16T13:30:49.294Z,12.25
2017-07-16T13:33:15.691Z,13.40
2017-07-16T13:35:42.468Z,13.17
2017-07-16T13:38:08.910Z,12.07
2017-07-16T13:40:35.798Z,11.53
2017-07-16T13:43:02.203Z,10.73
2017-07-16T13:45:28.654Z,14.70
2017-07-16T13:47:55.050Z,13.03
2017-07-16T13:50:21.481Z,12.00
2017-07-16T13:52:48.396Z,11.37
2017-07-16T13:55:14.803Z,11.23
2017-07-16T13:57:41.216Z,12.00
2017-07-16T14:00:07.582Z,11.00
2017-07-16T14:02:34.003Z,11.10
2017-07-16T14:05:00.380Z,10.23
2017-07-16T14:07:27.466Z,11.50
2017-07-16T14:09:53.867Z,11.93
2017-07-16T14:12:20.237Z,9.83
2017-07-16T14:14:46.610Z,10.77
2017-07-16T14:17:13.003Z,12.93
2017-07-16T14:19:39.380Z,11.17
2017-07-16T14:22:05.846Z,12.87
2017-07-16T14:24:32.233Z,10.00
2017-07-16T14:26:58.621Z,10.33
2017-07-16T14:29:25.033Z,14.60
2017-07-16T14:31:51.388Z,12.13
2017-07-16T14:34:17.733Z,12.73
2017-07-16T14:36:44.079Z,11.97
2017-07-16T14:39:10.472Z,13.40
2017-07-16T14:41:36.866Z,14.23
2017-07-16T14:44:04.890Z,11.33
2017-07-16T14:46:32.320Z,13.40
2017-07-16T14:48:58.736Z,13.13
2017-07-16T14:51:25.135Z,13.23
2017-07-16T14:53:51.517Z,13.07
2017-07-16T14:56:19.310Z,12.90
2017-07-16T14:58:45.819Z,17.33
2017-07-16T15:01:12.295Z,14.40
2017-07-16T15:03:38.822Z,14.03
2017-07-16T15:06:05.278Z,13.27
2017-07-16T15:08:31.703Z,13.57
2017-07-16T15:10:58.149Z,15.30
2017-07-16T15:13:24.589Z,12.10
2017-07-16T15:15:51.035Z,13.70
2017-07-16T15:18:17.424Z,14.57
2017-07-16T15:20:44.372Z,13.70
2017-07-16T15:23:10.877Z,14.13
2017-07-16T15:25:37.283Z,18.03
2017-07-16T15:28:03.662Z,14.70
2017-07-16T15:30:30.046Z,14.10
2017-07-16T15:32:56.430Z,14.60
2017-07-16T15:35:22.921Z,14.90
2017-07-16T15:37:49.313Z,14.20
2017-07-16T15:40:15.701Z,17.10
2017-07-16T15:42:42.097Z,13.87
2017-07-16T15:45:08.469Z,15.73
2017-07-16T15:47:34.867Z,14.73
2017-07-16T15:50:01.316Z,16.80
2017-07-16T15:52:27.688Z,15.33
2017-07-16T15:54:54.086Z,15.80
2017-07-16T15:57:20.432Z,16.33
2017-07-16T15:59:46.796Z,14.17
2017-07-16T16:02:13.142Z,16.53
2017-07-16T16:04:39.537Z,14.60
2017-07-16T16:07:05.922Z,13.07
2017-07-16T16:09:32.373Z,14.30
2017-07-16T16:11:59.616Z,14.80
2017-07-16T16:14:26.004Z,15.27
2017-07-16T16:16:52.410Z,15.03
2017-07-16T16:19:18.756Z,12.60
2017-07-16T16:21:45.173Z,13.10
2017-07-16T16:24:11.567Z,13.30
2017-07-16T16:26:38.022Z,14.17
2017-07-16T16:29:04.396Z,14.03
2017-07-16T16:31:30.939Z,12.37
2017-07-16T16:33:57.322Z,14.27
2017-07-16T16:36:23.825Z,12.23
2017-07-16T16:38:50.231Z,13.23
2017-07-16T16:41:16.988Z,13.57
2017-07-16T16:43:44.701Z,13.47
2017-07-16T16:46:11.064Z,13.50
2017-07-16T16:48:37.769Z,13.33
2017-07-16T16:51:04.174Z,11.27
2017-07-16T16:53:30.556Z,13.80
2017-07-16T16:55:57.001Z,14.00
2017-07-16T16:58:23.435Z,13.47
2017-07-16T17:00:50.637Z,13.30
2017-07-16T17:03:17.014Z,13.60
2017-07-16T17:05:43.410Z,12.57
2017-07-16T17:08:09.781Z,12.27
2017-07-16T17:10:36.156Z,12.67
2017-07-16T17:13:02.538Z,12.40
2017-07-16T17:15:28.942Z,13.13
2017-07-16T17:17:55.337Z,13.07
2017-07-16T17:20:21.727Z,12.40
2017-07-16T17:22:48.072Z,13.03
2017-07-16T17:25:14.434Z,13.80
2017-07-16T17:27:40.816Z,13.80
2017-07-16T17:30:07.207Z,15.30
2017-07-16T17:32:33.647Z,14.67
2017-07-16T17:35:00.019Z,13.20
2017-07-16T17:37:26.824Z,13.53
2017-07-16T17:39:54.060Z,13.30
2017-07-16T17:42:20.434Z,12.93
2017-07-16T17:44:46.823Z,14.30
2017-07-16T17:47:13.206Z,17.60
2017-07-16T17:49:39.664Z,15.40
2017-07-16T17:52:06.219Z,14.77
2017-07-16T17:54:36.104Z,14.37
2017-07-16T17:57:02.858Z,16.60
2017-07-16T17:59:31.163Z,13.23
2017-07-16T18:04:54.347Z,14.57
2017-07-16T18:07:21.372Z,13.97
2017-07-16T18:09:52.858Z,16.73
2017-07-16T18:12:26.426Z,14.60
2017-07-16T18:14:55.637Z,19.60
2017-07-16T18:17:22.766Z,15.30
2017-07-16T18:19:49.150Z,14.57
2017-07-16T18:22:20.395Z,16.73
2017-07-16T18:30:40.391Z,16.77
2017-07-16T18:33:06.852Z,20.03
2017-07-16T18:35:33.249Z,17.57
2017-07-16T18:37:59.631Z,22.00
2017-07-16T18:40:26.210Z,16.50
2017-07-16T18:42:52.729Z,17.53
2017-07-16T18:45:26.524Z,18.63
2017-07-16T18:47:53.625Z,17.67
2017-07-16T18:50:24.899Z,17.57
2017-07-16T18:53:04.135Z,18.00
2017-07-16T18:55:34.861Z,17.93
2017-07-16T18:58:25.988Z,16.83
2017-07-16T19:01:03.644Z,18.80
2017-07-16T19:03:32.595Z,19.53
2017-07-16T19:05:59.095Z,20.13
2017-07-16T19:08:26.145Z,19.43
2017-07-16T19:10:53.609Z,21.93
2017-07-16T19:13:23.573Z,22.17
2017-07-16T19:15:50.585Z,21.80
2017-07-16T19:21:09.921Z,24.30
2017-07-16T19:35:16.033Z,25.43
2017-07-16T19:37:42.784Z,21.17
2017-07-16T19:45:38.452Z,21.83
2017-07-16T19:48:05.069Z,23.90
2017-07-16T19:50:33.633Z,24.83
2017-07-16T19:53:00.231Z,22.30
2017-07-16T19:55:34.622Z,21.80
2017-07-16T20:03:28.037Z,21.33
2017-07-16T20:05:55.974Z,22.30
2017-07-16T20:08:22.556Z,27.60
2017-07-16T20:10:49.776Z,23.33
2017-07-16T20:13:17.997Z,21.27
2017-07-16T20:15:45.056Z,24.43
2017-07-16T20:18:11.616Z,22.57
2017-07-16T20:20:38.331Z,22.33
2017-07-16T20:23:04.753Z,22.23
2017-07-16T20:25:31.274Z,23.57
2017-07-16T20:27:58.542Z,21.47
2017-07-16T20:30:25.088Z,21.93
2017-07-16T20:32:52.500Z,27.13
2017-07-16T20:35:19.073Z,24.53
2017-07-16T20:37:45.582Z,25.37
2017-07-16T20:40:12.131Z,21.43
2017-07-16T20:42:39.257Z,21.27
2017-07-16T20:45:05.679Z,25.17
2017-07-16T20:47:32.090Z,23.10
2017-07-16T20:49:58.556Z,22.37
2017-07-16T20:52:24.957Z,24.90
2017-07-16T20:54:51.355Z,27.83
2017-07-16T20:57:17.776Z,24.77
2017-07-16T20:59:44.434Z,25.50
2017-07-16T21:02:10.839Z,24.60
2017-07-16T21:04:38.923Z,24.83
2017-07-16T21:07:05.344Z,26.03
2017-07-16T21:09:31.821Z,26.97
2017-07-16T21:11:58.200Z,23.67
2017-07-16T21:14:24.716Z,25.60
2017-07-16T21:16:51.576Z,27.13
2017-07-16T21:22:01.418Z,22.40
2017-07-16T21:24:27.868Z,24.83
2017-07-16T21:26:54.286Z,23.43
2017-07-16T21:29:20.675Z,24.93
2017-07-16T21:31:47.053Z,22.00
2017-07-16T21:34:13.519Z,30.03
2017-07-16T21:36:39.927Z,26.67
2017-07-16T21:39:06.343Z,30.70
2017-07-16T21:41:32.854Z,28.80
2017-07-16T21:43:59.233Z,29.20
2017-07-16T21:46:25.679Z,24.00
2017-07-16T21:48:52.170Z,21.93
2017-07-16T21:51:18.681Z,24.00
2017-07-16T21:53:45.065Z,25.73
2017-07-16T21:56:11.474Z,26.37
2017-07-16T21:58:37.908Z,26.50
2017-07-16T22:01:04.300Z,23.60
2017-07-16T22:03:30.708Z,27.50
2017-07-16T22:05:57.094Z,24.07
2017-07-16T22:08:23.468Z,27.17
2017-07-16T22:10:49.889Z,24.30
2017-07-16T22:13:16.277Z,24.37
2017-07-16T22:15:42.663Z,23.00
2017-07-16T22:18:09.047Z,24.93
2017-07-16T22:20:36.149Z,23.73
2017-07-16T22:23:02.532Z,23.53
2017-07-16T22:25:28.926Z,24.57
2017-07-16T22:27:55.308Z,29.30
2017-07-16T22:30:21.696Z,25.10
2017-07-16T22:32:48.052Z,28.47
2017-07-16T22:35:14.436Z,29.57
2017-07-16T22:37:40.814Z,23.30
2017-07-16T22:40:07.188Z,30.47
2017-07-16T22:42:33.566Z,23.60
2017-07-16T22:44:59.969Z,23.07
2017-07-16T22:47:26.341Z,23.53
2017-07-16T22:49:52.748Z,24.90
2017-07-16T22:52:19.116Z,23.40
2017-07-16T22:54:45.520Z,27.83
2017-07-16T22:57:11.912Z,23.93
2017-07-16T22:59:38.274Z,25.77
2017-07-16T23:02:04.652Z,23.87
2017-07-16T23:04:31.042Z,25.20
2017-07-16T23:06:59.729Z,25.07
2017-07-16T23:09:26.479Z,25.37
2017-07-16T23:11:57.146Z,24.43
2017-07-16T23:14:23.717Z,26.63
2017-07-16T23:16:50.197Z,25.80
2017-07-16T23:19:17.641Z,25.47
2017-07-16T23:21:44.129Z,23.27
2017-07-16T23:24:10.477Z,27.37
2017-07-16T23:26:36.881Z,26.83
2017-07-16T23:29:03.238Z,24.90
2017-07-16T23:31:29.639Z,20.90
2017-07-16T23:33:56.073Z,21.70
2017-07-16T23:36:22.487Z,26.77
2017-07-16T23:38:48.880Z,26.53
2017-07-16T23:41:15.239Z,29.43
2017-07-16T23:43:41.601Z,24.30
2017-07-16T23:46:07.959Z,26.17
2017-07-16T23:48:34.322Z,24.83
2017-07-16T23:51:00.675Z,20.70
2017-07-16T23:53:27.042Z,24.23
2017-07-16T23:55:53.393Z,24.70
2017-07-16T23:58:19.785Z,23.73
